Time;durP1;ratioP1;P1;durP2;ratioP2;P2;SDS_P1;SDS_P2;PMS_P1;PMS_P2;Temp;Humidity;BMP_temperature;BMP_pressure;BME280_temperature;BME280_humidity;BME280_pressure;Samples;Min_cycle;Max_cycle;Signal;HPM_P1;HPM_P2
2022/08/30 00:01:19;;;;;;;4.72;3.08;;;16.80;99.90;;;;;;5075233;28;20205;-80
2022/08/30 00:03:47;;;;;;;4.97;3.40;;;16.80;99.90;;;;;;5074527;28;20197;-81
2022/08/30 00:06:16;;;;;;;7.05;3.20;;;16.80;99.90;;;;;;5059450;28;20611;-81
2022/08/30 00:08:44;;;;;;;3.90;2.97;;;16.80;99.90;;;;;;5054753;28;20545;-79
2022/08/30 00:11:13;;;;;;;5.88;3.45;;;16.70;99.90;;;;;;5054660;28;20595;-81
2022/08/30 00:13:43;;;;;;;6.63;3.10;;;16.70;99.90;;;;;;5091923;28;20212;-81
2022/08/30 00:16:11;;;;;;;7.45;3.33;;;16.70;99.90;;;;;;5093635;28;20685;-81
2022/08/30 00:18:39;;;;;;;4.45;2.83;;;16.70;99.90;;;;;;5095992;28;20196;-83
2022/08/30 00:21:07;;;;;;;5.05;3.33;;;16.70;99.90;;;;;;5064620;28;20208;-80
2022/08/30 00:23:35;;;;;;;5.18;3.08;;;16.70;99.90;;;;;;5053507;28;20190;-81
2022/08/30 00:26:02;;;;;;;5.03;3.30;;;16.70;99.90;;;;;;5067823;28;20312;-80
2022/08/30 00:28:30;;;;;;;4.33;2.93;;;16.70;99.90;;;;;;5073138;28;20194;-80
2022/08/30 00:30:57;;;;;;;5.22;3.30;;;16.70;99.90;;;;;;5070536;28;20308;-81
2022/08/30 00:33:24;;;;;;;6.03;3.15;;;16.60;99.90;;;;;;5053802;28;20368;-79
2022/08/30 00:35:51;;;;;;;5.50;3.33;;;16.60;99.90;;;;;;5055793;28;20194;-81
2022/08/30 00:38:20;;;;;;;5.18;3.25;;;16.60;99.90;;;;;;5056790;28;20201;-80
2022/08/30 00:40:47;;;;;;;5.50;3.17;;;16.60;99.90;;;;;;5055152;28;20641;-81
2022/08/30 00:43:19;;;;;;;4.70;2.70;;;16.60;99.90;;;;;;5072744;28;20212;-81
2022/08/30 00:45:46;;;;;;;5.38;3.60;;;16.60;99.90;;;;;;5077129;28;20229;-82
2022/08/30 00:48:13;;;;;;;5.88;3.28;;;16.60;99.90;;;;;;5073113;28;20205;-80
2022/08/30 00:50:47;;;;;;;5.50;3.60;;;16.60;99.90;;;;;;5053998;28;20194;-80
2022/08/30 00:53:18;;;;;;;5.32;3.20;;;16.60;99.90;;;;;;5052954;28;20219;-80
2022/08/30 00:55:49;;;;;;;5.60;3.35;;;16.60;99.90;;;;;;5052650;28;20771;-81
2022/08/30 00:58:20;;;;;;;5.23;3.40;;;16.60;99.90;;;;;;5052871;28;20195;-80
2022/08/30 01:00:49;;;;;;;5.10;3.63;;;16.60;99.90;;;;;;5072812;28;20303;-81
2022/08/30 01:03:16;;;;;;;4.80;3.30;;;16.60;99.90;;;;;;5070893;28;20260;-81
2022/08/30 01:05:43;;;;;;;6.22;4.43;;;16.60;99.90;;;;;;5072616;28;20197;-79
2022/08/30 01:08:10;;;;;;;7.28;4.50;;;16.60;99.90;;;;;;5072035;28;20660;-80
2022/08/30 01:10:37;;;;;;;6.15;4.25;;;16.60;99.90;;;;;;5066938;28;20194;-79
2022/08/30 01:13:06;;;;;;;4.63;3.80;;;16.60;99.90;;;;;;5052545;28;20193;-80
2022/08/30 01:15:34;;;;;;;5.22;4.68;;;16.60;99.90;;;;;;5051673;28;20233;-82
2022/08/30 01:18:02;;;;;;;5.70;5.00;;;16.60;99.90;;;;;;5069952;28;20405;-82
2022/08/30 01:20:33;;;;;;;6.53;4.10;;;16.60;99.90;;;;;;5072449;28;20270;-80
2022/08/30 01:23:08;;;;;;;5.93;4.43;;;16.60;99.90;;;;;;5071317;28;20295;-80
2022/08/30 01:25:37;;;;;;;5.22;4.35;;;16.60;99.90;;;;;;5072833;28;20185;-81
2022/08/30 01:28:08;;;;;;;6.57;4.90;;;16.60;99.90;;;;;;5071966;28;20769;-81
2022/08/30 01:30:37;;;;;;;4.25;3.63;;;16.60;99.90;;;;;;5071854;28;20188;-81
2022/08/30 01:33:05;;;;;;;8.85;5.40;;;16.60;99.90;;;;;;5056476;28;20646;-80
2022/08/30 01:35:35;;;;;;;7.00;5.05;;;16.60;99.90;;;;;;5051981;28;20197;-80
2022/08/30 01:38:04;;;;;;;4.03;3.72;;;16.60;99.90;;;;;;5051663;28;20232;-80
2022/08/30 01:40:31;;;;;;;7.95;5.22;;;16.60;99.90;;;;;;5069146;28;20221;-80
2022/08/30 01:42:58;;;;;;;6.80;4.82;;;16.50;99.90;;;;;;5072204;28;20197;-80
2022/08/30 01:45:24;;;;;;;7.93;5.72;;;16.60;99.90;;;;;;5071510;28;20197;-80
2022/08/30 01:47:51;;;;;;;6.88;4.63;;;16.50;99.90;;;;;;5072296;28;20201;-80
2022/08/30 01:50:18;;;;;;;6.22;5.35;;;16.50;99.90;;;;;;5056308;28;20594;-81
2022/08/30 01:52:45;;;;;;;5.22;4.72;;;16.50;99.90;;;;;;5051511;28;20222;-81
2022/08/30 01:55:13;;;;;;;5.80;4.90;;;16.50;99.90;;;;;;5051732;28;20198;-81
2022/08/30 01:57:40;;;;;;;8.65;5.75;;;16.50;99.90;;;;;;5051848;28;20212;-79
2022/08/30 02:00:09;;;;;;;5.72;4.03;;;16.50;99.90;;;;;;5052291;28;20357;-80
2022/08/30 02:02:36;;;;;;;5.65;4.70;;;16.50;99.90;;;;;;5051763;28;20594;-80
2022/08/30 02:05:05;;;;;;;5.43;4.88;;;16.50;99.90;;;;;;5052125;28;20202;-80
2022/08/30 02:07:31;;;;;;;4.90;4.20;;;16.40;99.90;;;;;;5051765;28;20326;-81
2022/08/30 02:09:58;;;;;;;7.80;5.80;;;16.40;99.90;;;;;;5052130;28;20599;-78
2022/08/30 02:12:27;;;;;;;5.22;4.72;;;16.30;99.90;;;;;;5051018;28;20194;-81
2022/08/30 02:14:54;;;;;;;6.47;4.40;;;16.30;99.90;;;;;;5057187;28;20225;-82
2022/08/30 02:17:21;;;;;;;6.90;4.75;;;16.30;99.90;;;;;;5071496;28;20205;-81
2022/08/30 02:19:48;;;;;;;5.35;4.65;;;16.30;99.90;;;;;;5070945;28;20213;-79
2022/08/30 02:22:15;;;;;;;10.88;6.30;;;16.20;99.90;;;;;;5052531;28;20213;-81
2022/08/30 02:24:42;;;;;;;5.38;4.72;;;16.20;99.90;;;;;;5051669;28;20220;-81
2022/08/30 02:27:09;;;;;;;10.00;5.95;;;16.10;99.90;;;;;;5051395;28;20795;-80
2022/08/30 02:29:37;;;;;;;7.18;5.28;;;16.10;99.90;;;;;;5050989;28;20193;-81
2022/08/30 02:32:04;;;;;;;6.32;5.15;;;16.10;99.90;;;;;;5051978;28;20316;-80
2022/08/30 02:34:31;;;;;;;6.57;5.97;;;16.10;99.90;;;;;;5050846;28;20277;-79
2022/08/30 02:36:58;;;;;;;6.15;5.43;;;16.10;99.90;;;;;;5051701;28;20209;-78
2022/08/30 02:39:25;;;;;;;8.83;5.10;;;16.10;99.90;;;;;;5055429;28;20255;-80
2022/08/30 02:41:51;;;;;;;9.75;6.15;;;16.10;99.90;;;;;;5071330;28;20197;-77
2022/08/30 02:44:18;;;;;;;7.43;6.17;;;16.00;99.90;;;;;;5071424;28;20292;-79
2022/08/30 02:46:47;;;;;;;6.87;5.43;;;16.00;99.90;;;;;;5071081;28;20216;-79
2022/08/30 02:49:14;;;;;;;6.87;5.07;;;16.00;99.90;;;;;;5071838;28;20479;-78
2022/08/30 02:51:41;;;;;;;8.07;5.87;;;16.00;99.90;;;;;;5074586;28;20193;-77
2022/08/30 02:54:07;;;;;;;6.22;5.32;;;16.00;99.90;;;;;;5073785;28;20197;-78
2022/08/30 02:56:35;;;;;;;6.18;5.32;;;16.00;99.90;;;;;;5074416;28;20204;-77
2022/08/30 02:59:02;;;;;;;5.80;5.20;;;16.00;99.90;;;;;;5076194;28;20217;-77
2022/08/30 03:01:29;;;;;;;7.70;5.50;;;16.00;99.90;;;;;;5075407;28;20233;-77
2022/08/30 03:03:57;;;;;;;6.10;5.50;;;15.90;99.90;;;;;;5076433;28;20208;-77
2022/08/30 03:06:24;;;;;;;5.88;4.93;;;16.00;99.90;;;;;;5065195;28;20244;-78
2022/08/30 03:08:50;;;;;;;10.20;6.00;;;15.90;99.90;;;;;;5058382;28;20198;-78
2022/08/30 03:11:17;;;;;;;4.65;4.15;;;15.90;99.90;;;;;;5076134;28;20636;-76
2022/08/30 03:13:44;;;;;;;9.07;6.43;;;15.90;99.90;;;;;;5076246;28;20251;-78
2022/08/30 03:16:11;;;;;;;7.38;5.30;;;15.90;99.90;;;;;;5066959;28;20314;-77
2022/08/30 03:18:38;;;;;;;5.83;5.10;;;15.90;99.90;;;;;;5054587;28;20198;-77
2022/08/30 03:21:11;;;;;;;4.50;3.90;;;15.80;99.90;;;;;;5054387;28;20730;-78
2022/08/30 03:23:39;;;;;;;4.40;4.00;;;15.80;99.90;;;;;;5053726;28;20292;-77
2022/08/30 03:26:06;;;;;;;4.50;3.90;;;15.80;99.90;;;;;;5054668;28;20606;-77
2022/08/30 03:28:33;;;;;;;5.88;5.28;;;15.70;99.90;;;;;;5053774;28;20198;-76
2022/08/30 03:31:00;;;;;;;5.20;4.55;;;15.70;99.90;;;;;;5053660;28;20249;-76
2022/08/30 03:33:27;;;;;;;4.43;3.80;;;15.70;99.90;;;;;;5054076;28;20304;-76
2022/08/30 03:35:54;;;;;;;4.78;4.32;;;15.70;99.90;;;;;;5053379;28;20197;-77
2022/08/30 03:38:23;;;;;;;4.07;3.67;;;15.60;99.90;;;;;;5053792;28;20497;-77
2022/08/30 03:40:50;;;;;;;4.25;3.85;;;15.60;99.90;;;;;;5053644;28;20316;-80
2022/08/30 03:43:16;;;;;;;5.47;3.80;;;15.60;99.90;;;;;;5065734;28;20205;-79
2022/08/30 03:45:44;;;;;;;5.05;4.35;;;15.50;99.90;;;;;;5094374;28;20283;-77
2022/08/30 03:48:11;;;;;;;6.87;4.67;;;15.50;99.90;;;;;;5094152;28;20200;-79
2022/08/30 03:50:39;;;;;;;5.95;5.18;;;15.50;99.90;;;;;;5093461;28;20518;-78
2022/08/30 03:53:06;;;;;;;5.20;4.70;;;15.50;99.90;;;;;;5054185;28;20545;-77
2022/08/30 03:55:34;;;;;;;4.30;3.90;;;15.50;99.90;;;;;;5053899;28;20194;-79
2022/08/30 03:58:01;;;;;;;5.87;5.07;;;15.50;99.90;;;;;;5053352;28;20194;-78
2022/08/30 04:00:28;;;;;;;5.53;4.60;;;15.40;99.90;;;;;;5054491;28;20221;-79
2022/08/30 04:02:55;;;;;;;6.37;4.40;;;15.40;99.90;;;;;;5088424;28;20212;-79
2022/08/30 04:05:22;;;;;;;11.00;5.63;;;15.40;99.90;;;;;;5089198;28;20264;-79
2022/08/30 04:07:48;;;;;;;6.67;5.73;;;15.40;99.90;;;;;;5053708;28;20489;-80
2022/08/30 04:10:16;;;;;;;6.47;5.13;;;15.40;99.90;;;;;;5053474;28;20620;-79
2022/08/30 04:12:44;;;;;;;7.00;4.97;;;15.50;99.90;;;;;;5052897;28;20198;-79
2022/08/30 04:15:11;;;;;;;8.60;6.70;;;15.50;99.90;;;;;;5068181;28;20233;-79
2022/08/30 04:17:38;;;;;;;8.17;5.90;;;15.50;99.90;;;;;;5067667;28;20587;-77
2022/08/30 04:20:06;;;;;;;7.53;6.10;;;15.60;99.90;;;;;;5051986;28;20220;-77
2022/08/30 04:22:33;;;;;;;7.40;5.87;;;15.60;99.90;;;;;;5052723;28;20190;-77
2022/08/30 04:25:00;;;;;;;8.73;6.67;;;15.60;99.90;;;;;;5052155;28;20232;-78
2022/08/30 04:27:27;;;;;;;9.20;6.83;;;15.60;99.90;;;;;;5053393;28;20202;-81
2022/08/30 04:29:55;;;;;;;7.70;5.57;;;15.60;99.90;;;;;;5053087;28;20186;-79
2022/08/30 04:32:22;;;;;;;6.17;5.60;;;15.60;99.90;;;;;;5052796;28;20218;-79
2022/08/30 04:34:49;;;;;;;7.67;6.47;;;15.60;99.90;;;;;;5052802;28;20664;-77
2022/08/30 04:37:16;;;;;;;8.45;5.70;;;15.60;99.90;;;;;;5052798;28;20208;-76
2022/08/30 04:39:44;;;;;;;8.43;7.03;;;15.60;99.90;;;;;;5051566;28;20193;-79
2022/08/30 04:42:11;;;;;;;6.37;5.77;;;15.60;99.90;;;;;;5052733;28;20205;-78
2022/08/30 04:44:38;;;;;;;7.55;5.90;;;15.70;99.90;;;;;;5052508;28;20225;-78
2022/08/30 04:47:07;;;;;;;8.53;5.63;;;15.60;99.90;;;;;;5051654;28;20583;-77
2022/08/30 04:49:34;;;;;;;7.03;6.43;;;15.60;99.90;;;;;;5052637;28;20205;-77
2022/08/30 04:52:01;;;;;;;8.07;6.53;;;15.60;99.90;;;;;;5052280;28;20295;-80
2022/08/30 04:54:28;;;;;;;8.00;6.77;;;15.60;99.90;;;;;;5051730;28;20237;-79
2022/08/30 04:56:55;;;;;;;6.47;5.80;;;15.60;99.90;;;;;;5052454;28;20198;-78
2022/08/30 04:59:22;;;;;;;8.33;6.80;;;15.70;99.90;;;;;;5069401;28;20229;-77
2022/08/30 05:01:48;;;;;;;9.03;7.43;;;15.60;99.90;;;;;;5071438;28;20220;-80
2022/08/30 05:04:17;;;;;;;8.35;7.13;;;15.70;99.90;;;;;;5071939;28;20209;-79
2022/08/30 05:06:44;;;;;;;8.07;7.00;;;15.70;99.90;;;;;;5072160;28;20185;-77
2022/08/30 05:09:14;;;;;;;6.35;5.75;;;15.70;99.90;;;;;;5071480;28;20291;-77
2022/08/30 05:11:42;;;;;;;6.70;6.10;;;15.70;99.90;;;;;;5071842;28;20216;-79
2022/08/30 05:14:10;;;;;;;10.40;8.00;;;15.70;99.90;;;;;;5070472;28;20201;-78
2022/08/30 05:16:36;;;;;;;6.40;5.80;;;15.70;99.90;;;;;;5057431;28;20205;-79
2022/08/30 05:19:03;;;;;;;5.70;5.20;;;15.70;99.90;;;;;;5052007;28;20192;-78
2022/08/30 05:21:31;;;;;;;6.73;5.97;;;15.70;99.90;;;;;;5051649;28;20262;-77
2022/08/30 05:24:01;;;;;;;6.93;5.93;;;15.70;99.90;;;;;;5051279;28;20202;-78
2022/08/30 05:26:30;;;;;;;7.35;5.95;;;15.70;99.90;;;;;;5051799;28;20202;-78
2022/08/30 05:28:57;;;;;;;10.23;7.13;;;15.70;99.90;;;;;;5051131;28;20202;-77
2022/08/30 05:31:27;;;;;;;6.95;6.13;;;15.70;99.90;;;;;;5052116;28;20220;-78
2022/08/30 05:33:55;;;;;;;10.10;7.37;;;15.70;99.90;;;;;;5051651;28;20806;-78
2022/08/30 05:36:25;;;;;;;10.43;7.60;;;15.70;99.90;;;;;;5069889;28;20204;-78
2022/08/30 05:38:53;;;;;;;7.50;6.50;;;15.80;99.90;;;;;;5071720;28;20560;-78
2022/08/30 05:41:21;;;;;;;9.70;7.20;;;15.80;99.90;;;;;;5071646;28;20307;-78
2022/08/30 05:43:49;;;;;;;8.17;7.47;;;15.80;99.90;;;;;;5071408;28;20225;-78
2022/08/30 05:46:18;;;;;;;9.57;7.90;;;15.80;99.90;;;;;;5071772;28;20231;-77
2022/08/30 05:48:45;;;;;;;7.87;6.63;;;15.80;99.90;;;;;;5070372;28;20211;-78
2022/08/30 05:51:16;;;;;;;6.53;5.83;;;15.90;99.90;;;;;;5063243;28;20206;-78
2022/08/30 05:53:44;;;;;;;6.70;5.60;;;15.90;99.90;;;;;;5051412;28;20252;-78
2022/08/30 05:56:14;;;;;;;7.57;6.70;;;15.90;99.90;;;;;;5051354;28;20388;-78
2022/08/30 05:58:41;;;;;;;9.50;6.43;;;15.90;99.90;;;;;;5050933;28;20298;-77
2022/08/30 06:01:18;;;;;;;9.13;7.45;;;16.00;99.90;;;;;;5071541;28;20225;-78
2022/08/30 06:03:44;;;;;;;9.68;6.97;;;16.00;99.90;;;;;;5072206;28;20200;-78
2022/08/30 06:06:11;;;;;;;7.28;5.88;;;16.00;99.90;;;;;;5051721;28;20501;-78
2022/08/30 06:08:38;;;;;;;8.93;7.65;;;16.00;99.90;;;;;;5051277;28;20204;-77
2022/08/30 06:11:05;;;;;;;6.60;6.00;;;16.10;99.90;;;;;;5050877;28;20198;-78
2022/08/30 06:13:33;;;;;;;7.05;6.35;;;16.10;99.90;;;;;;5053860;28;20197;-77
2022/08/30 06:16:00;;;;;;;10.37;7.30;;;16.10;99.90;;;;;;5055771;28;20324;-78
2022/08/30 06:18:27;;;;;;;7.75;5.15;;;16.20;99.90;;;;;;5061573;28;20498;-78
2022/08/30 06:20:54;;;;;;;7.65;6.70;;;16.20;99.90;;;;;;5070106;28;20226;-78
2022/08/30 06:23:21;;;;;;;9.03;5.77;;;16.30;99.90;;;;;;5067967;28;20202;-77
2022/08/30 06:25:48;;;;;;;6.68;5.57;;;16.30;99.90;;;;;;5067945;28;20205;-79
2022/08/30 06:28:15;;;;;;;7.63;6.43;;;16.30;99.90;;;;;;5058318;28;20202;-79
2022/08/30 06:30:44;;;;;;;9.00;6.15;;;16.40;99.90;;;;;;5074578;28;20235;-79
2022/08/30 06:33:11;;;;;;;8.88;6.07;;;16.50;99.90;;;;;;5077461;28;20292;-78
2022/08/30 06:35:38;;;;;;;8.50;6.20;;;16.60;99.90;;;;;;5078323;28;20212;-77
2022/08/30 06:38:05;;;;;;;5.90;5.17;;;16.60;99.90;;;;;;5078476;28;20284;-78
2022/08/30 06:40:32;;;;;;;7.38;5.15;;;16.60;99.90;;;;;;5078202;28;20491;-77
2022/08/30 06:42:59;;;;;;;7.13;6.00;;;16.60;99.90;;;;;;5076485;28;20220;-78
2022/08/30 06:45:26;;;;;;;7.68;6.00;;;16.70;99.90;;;;;;5059770;28;20790;-77
2022/08/30 06:47:54;;;;;;;6.20;5.60;;;16.80;99.90;;;;;;5056802;28;20198;-78
2022/08/30 06:50:21;;;;;;;6.97;5.82;;;16.80;99.90;;;;;;5063303;28;20209;-77
2022/08/30 06:52:48;;;;;;;7.88;6.13;;;16.80;99.90;;;;;;5073482;28;20204;-77
2022/08/30 06:55:17;;;;;;;7.95;5.90;;;16.90;99.90;;;;;;5054665;28;20507;-76
2022/08/30 06:57:44;;;;;;;7.70;6.90;;;17.00;99.90;;;;;;5054395;28;20492;-77
2022/08/30 07:00:15;;;;;;;6.63;6.03;;;17.00;99.90;;;;;;5063086;28;20783;-78
2022/08/30 07:02:43;;;;;;;5.93;5.32;;;17.10;99.90;;;;;;5070577;28;20216;-78
2022/08/30 07:05:11;;;;;;;7.20;6.07;;;17.20;99.90;;;;;;5073719;28;20754;-78
2022/08/30 07:07:39;;;;;;;6.47;5.85;;;17.20;99.90;;;;;;5070053;28;20310;-78
2022/08/30 07:10:07;;;;;;;5.97;5.07;;;17.30;99.90;;;;;;5073684;28;20193;-79
2022/08/30 07:12:35;;;;;;;6.18;4.60;;;17.30;99.90;;;;;;5069097;28;20211;-78
2022/08/30 07:15:04;;;;;;;9.68;5.32;;;17.40;99.90;;;;;;5060512;28;20237;-77
2022/08/30 07:20:17;;;;;;;4.78;4.38;;;17.60;99.90;;;;;;5065833;28;20191;-77
2022/08/30 07:22:44;;;;;;;4.88;2.95;;;17.80;99.90;;;;;;5062313;28;20297;-78
2022/08/30 07:25:11;;;;;;;4.32;3.10;;;18.00;99.90;;;;;;5064229;28;20204;-78
2022/08/30 07:27:41;;;;;;;6.22;3.13;;;18.20;99.90;;;;;;5062668;28;20609;-77
2022/08/30 07:30:08;;;;;;;4.20;2.45;;;18.40;99.90;;;;;;5058655;28;20210;-77
2022/08/30 07:32:37;;;;;;;3.25;2.38;;;18.50;99.90;;;;;;5059449;28;20603;-79
2022/08/30 07:35:04;;;;;;;6.45;2.00;;;18.80;99.90;;;;;;5060390;28;20209;-79
2022/08/30 07:37:33;;;;;;;2.70;1.77;;;18.90;99.90;;;;;;5066507;28;20597;-77
2022/08/30 07:40:00;;;;;;;2.47;1.70;;;19.00;99.90;;;;;;5060911;28;20205;-77
2022/08/30 07:42:27;;;;;;;4.32;1.70;;;19.10;99.90;;;;;;5064271;28;20221;-79
2022/08/30 07:44:54;;;;;;;2.53;1.45;;;19.10;99.90;;;;;;5058629;28;20209;-78
2022/08/30 07:47:20;;;;;;;3.72;1.75;;;19.20;99.90;;;;;;5066538;28;20207;-79
2022/08/30 07:49:47;;;;;;;2.13;1.63;;;19.20;99.90;;;;;;5072614;28;20505;-78
2022/08/30 07:52:14;;;;;;;2.17;1.50;;;19.40;99.90;;;;;;5079636;28;20224;-78
2022/08/30 07:54:43;;;;;;;3.60;1.40;;;19.50;99.90;;;;;;5071644;28;20270;-79
2022/08/30 07:57:09;;;;;;;2.63;1.30;;;19.60;99.90;;;;;;5064407;28;20210;-80
2022/08/30 07:59:36;;;;;;;1.98;1.08;;;19.80;97.60;;;;;;5062278;28;20210;-79
2022/08/30 08:02:03;;;;;;;2.08;1.10;;;20.00;88.10;;;;;;5063753;28;20677;-78
2022/08/30 08:04:30;;;;;;;3.25;1.38;;;20.20;64.10;;;;;;5042828;28;20845;-79
2022/08/30 08:06:57;;;;;;;2.28;1.38;;;20.40;27.30;;;;;;5064962;28;20209;-79
2022/08/30 08:09:24;;;;;;;2.22;1.17;;;20.50;16.60;;;;;;5064189;28;20217;-78
2022/08/30 08:11:52;;;;;;;4.30;1.30;;;20.70;6.10;;;;;;5048285;28;20248;-79
2022/08/30 08:14:20;;;;;;;2.53;1.35;;;20.90;1.00;;;;;;5084882;28;20309;-79
2022/08/30 08:16:47;;;;;;;2.25;1.70;;;21.00;1.00;;;;;;5071057;28;20220;-78
2022/08/30 08:19:14;;;;;;;3.25;1.10;;;21.20;1.00;;;;;;5072273;28;20201;-80
2022/08/30 08:21:40;;;;;;;1.92;1.00;;;21.40;1.00;;;;;;5072587;28;20221;-80
2022/08/30 08:24:07;;;;;;;1.88;1.17;;;21.60;1.00;;;;;;5074723;28;20295;-77
2022/08/30 08:26:36;;;;;;;4.15;1.33;;;21.70;1.00;;;;;;5092541;28;20200;-77
2022/08/30 08:29:06;;;;;;;1.73;0.93;;;21.90;1.00;;;;;;5072783;28;20212;-78
2022/08/30 08:31:33;;;;;;;2.65;1.27;;;22.00;1.00;;;;;;5071165;28;20304;-78
2022/08/30 08:34:00;;;;;;;2.40;1.15;;;22.10;1.00;;;;;;5055353;28;20210;-77
2022/08/30 08:36:29;;;;;;;2.08;1.40;;;22.30;1.00;;;;;;5052425;28;20251;-79
2022/08/30 08:38:55;;;;;;;2.80;1.20;;;22.40;1.00;;;;;;5051520;28;20601;-78
2022/08/30 08:41:37;;;;;;;2.90;1.55;;;22.60;99.90;;;;;;5053080;28;20492;-80
2022/08/30 08:44:12;;;;;;;1.15;1.00;;;22.80;1.00;;;;;;5052022;28;20516;-76
2022/08/30 08:46:49;;;;;;;2.80;1.00;;;23.00;1.00;;;;;;5084015;28;20207;-78
2022/08/30 08:49:16;;;;;;;1.70;1.08;;;23.20;1.00;;;;;;5070035;28;20207;-79
2022/08/30 08:54:34;;;;;;;2.15;1.40;;;23.50;1.00;;;;;;5053271;28;20234;-77
2022/08/30 08:57:01;;;;;;;2.08;1.00;;;23.60;1.00;;;;;;5051975;28;20457;-76
2022/08/30 08:59:30;;;;;;;1.90;1.48;;;23.60;1.00;;;;;;5059581;28;20205;-77
2022/08/30 09:02:01;;;;;;;2.75;1.42;;;23.60;99.90;;;;;;5071824;28;20273;-77
2022/08/30 09:04:33;;;;;;;1.83;1.15;;;23.80;1.00;;;;;;5072225;28;20212;-78
2022/08/30 09:07:03;;;;;;;1.40;1.20;;;23.80;1.00;;;;;;5063199;28;20748;-77
2022/08/30 09:09:34;;;;;;;3.20;1.30;;;23.80;1.00;;;;;;5052348;28;20194;-78
2022/08/30 09:12:00;;;;;;;4.18;1.42;;;23.90;1.00;;;;;;5051702;28;20216;-77
2022/08/30 09:14:34;;;;;;;1.83;1.10;;;24.00;1.00;;;;;;5051069;28;20226;-78
2022/08/30 09:17:03;;;;;;;3.10;1.48;;;24.00;1.00;;;;;;5051487;28;20201;-79
2022/08/30 09:19:38;;;;;;;2.42;1.30;;;24.20;1.00;;;;;;5049638;28;20610;-79
2022/08/30 09:22:13;;;;;;;3.30;1.33;;;24.10;1.00;;;;;;5079288;28;20693;-78
2022/08/30 09:24:43;;;;;;;4.00;1.60;;;24.10;1.00;;;;;;5091087;28;20211;-78
2022/08/30 09:27:25;;;;;;;2.80;1.02;;;24.00;6.30;;;;;;5091222;28;20306;-78
2022/08/30 09:29:57;;;;;;;4.88;1.27;;;23.90;1.00;;;;;;5070539;28;20330;-79
2022/08/30 09:32:27;;;;;;;12.02;2.00;;;24.00;33.30;;;;;;5091186;28;20308;-78
2022/08/30 09:34:54;;;;;;;5.13;1.60;;;24.00;78.00;;;;;;5082974;28;20601;-79
2022/08/30 09:37:28;;;;;;;6.13;1.40;;;24.10;1.00;;;;;;5070746;28;20212;-78
2022/08/30 09:39:55;;;;;;;3.00;1.52;;;24.10;1.00;;;;;;5078376;22;20237;-78
2022/08/30 09:42:25;;;;;;;3.28;1.40;;;24.10;99.90;;;;;;5069597;28;20539;-78
2022/08/30 09:45:09;;;;;;;2.47;1.23;;;24.10;99.90;;;;;;5067702;28;20213;-78
2022/08/30 09:47:38;;;;;;;4.45;1.35;;;24.20;61.70;;;;;;5068620;28;20209;-79
2022/08/30 09:50:07;;;;;;;3.17;1.10;;;24.10;1.00;;;;;;5054254;28;20205;-79
2022/08/30 09:52:52;;;;;;;3.55;1.60;;;24.10;1.00;;;;;;5048893;28;20212;-79
2022/08/30 09:55:32;;;;;;;1.95;1.20;;;24.10;1.00;;;;;;5050797;28;20229;-78
2022/08/30 09:58:06;;;;;;;2.58;1.30;;;24.10;99.90;;;;;;5050895;28;20221;-78
2022/08/30 10:00:42;;;;;;;2.17;1.30;;;24.30;99.90;;;;;;5051522;28;20209;-76
2022/08/30 10:03:23;;;;;;;2.53;1.73;;;24.40;1.00;;;;;;5053610;28;20243;-78
2022/08/30 10:05:57;;;;;;;2.22;1.45;;;24.30;99.90;;;;;;5054736;28;20210;-81
2022/08/30 10:08:34;;;;;;;2.10;1.80;;;24.30;1.00;;;;;;5054093;28;20193;-78
2022/08/30 10:11:04;;;;;;;4.72;1.73;;;24.30;99.90;;;;;;5053891;28;20202;-78
2022/08/30 10:14:16;;;;;;;1.63;1.40;;;24.00;1.00;;;;;;5054970;28;20545;-82
2022/08/30 10:16:53;;;;;;;2.08;1.58;;;24.10;1.00;;;;;;4969157;28;20835;-80
2022/08/30 10:19:31;;;;;;;2.67;1.50;;;24.00;99.90;;;;;;4972947;28;20216;-80
2022/08/30 10:22:04;;;;;;;3.60;1.60;;;23.90;1.00;;;;;;5033329;28;20220;-79
2022/08/30 10:24:35;;;;;;;2.03;1.70;;;23.80;1.00;;;;;;5073025;28;20281;-80
2022/08/30 10:27:07;;;;;;;3.45;1.65;;;23.80;99.90;;;;;;5074227;28;20211;-79
2022/08/30 10:29:40;;;;;;;2.03;1.30;;;23.90;1.00;;;;;;5064724;28;20616;-81
2022/08/30 10:32:16;;;;;;;4.55;1.60;;;23.90;1.00;;;;;;5074098;28;20223;-77
2022/08/30 10:34:49;;;;;;;2.08;1.35;;;23.90;1.00;;;;;;5074675;28;20287;-79
2022/08/30 10:37:20;;;;;;;1.70;1.35;;;24.10;1.00;;;;;;5062654;28;20208;-77
2022/08/30 10:39:52;;;;;;;3.03;1.55;;;24.10;99.90;;;;;;5053786;28;20426;-80
2022/08/30 10:42:23;;;;;;;2.58;1.38;;;24.20;1.00;;;;;;5055319;28;20258;-79
2022/08/30 10:44:55;;;;;;;2.15;1.35;;;24.30;1.00;;;;;;5067397;28;20201;-80
2022/08/30 10:47:31;;;;;;;3.60;1.85;;;24.40;1.00;;;;;;5074627;28;20193;-80
2022/08/30 10:50:06;;;;;;;1.67;1.45;;;24.40;1.00;;;;;;5074198;28;20568;-82
2022/08/30 10:52:38;;;;;;;2.47;1.60;;;24.50;1.00;;;;;;5065426;28;20582;-81
2022/08/30 10:55:11;;;;;;;2.88;1.70;;;24.70;46.80;;;;;;5054670;28;20358;-78
2022/08/30 10:57:38;;;;;;;2.72;1.83;;;24.80;1.00;;;;;;5054238;28;20300;-78
2022/08/30 11:00:09;;;;;;;3.00;1.70;;;24.90;1.00;;;;;;5053452;28;20194;-78
2022/08/30 11:03:12;;;;;;;1.65;1.40;;;25.00;1.00;;;;;;5053552;28;20696;-78
2022/08/30 11:05:54;;;;;;;1.80;1.58;;;25.20;1.00;;;;;;5050235;28;20206;-80
2022/08/30 11:08:37;;;;;;;1.70;1.52;;;25.30;99.90;;;;;;5066667;28;20500;-80
2022/08/30 11:11:17;;;;;;;3.75;1.58;;;25.10;99.90;;;;;;5058660;28;20206;-79
2022/08/30 11:13:45;;;;;;;2.70;1.45;;;25.20;99.90;;;;;;5071975;28;20189;-78
2022/08/30 11:16:15;;;;;;;2.75;1.63;;;25.30;99.90;;;;;;5072969;28;20201;-80
2022/08/30 11:18:45;;;;;;;4.18;1.92;;;25.40;99.90;;;;;;5073020;28;20292;-79
2022/08/30 11:21:24;;;;;;;3.53;1.80;;;25.40;72.50;;;;;;5057169;28;20224;-78
2022/08/30 11:24:01;;;;;;;3.20;1.70;;;25.40;38.40;;;;;;5053543;28;20277;-79
2022/08/30 11:26:56;;;;;;;2.67;1.60;;;25.50;1.00;;;;;;5054485;28;20198;-79
2022/08/30 11:29:42;;;;;;;3.80;1.45;;;25.60;1.00;;;;;;5035834;28;20216;-79
2022/08/30 11:32:38;;;;;;;2.85;1.77;;;25.50;1.00;;;;;;5046773;28;20210;-79
2022/08/30 11:35:06;;;;;;;2.78;1.38;;;25.70;7.20;;;;;;5055933;28;20572;-81
2022/08/30 11:37:38;;;;;;;3.63;1.40;;;25.70;1.00;;;;;;5074149;28;20202;-82
2022/08/30 11:40:11;;;;;;;3.45;1.60;;;25.80;1.00;;;;;;5093810;28;20224;-81
2022/08/30 11:42:41;;;;;;;3.55;1.67;;;25.90;1.00;;;;;;5092358;28;20232;-80
2022/08/30 11:45:43;;;;;;;2.53;1.73;;;25.90;1.00;;;;;;5052975;28;20225;-80
2022/08/30 11:48:44;;;;;;;5.00;2.10;;;25.70;1.00;;;;;;5067433;28;20499;-84
2022/08/30 11:51:30;;;;;;;3.97;1.70;;;25.80;1.00;;;;;;5072608;28;20288;-79
2022/08/30 11:54:03;;;;;;;4.72;2.20;;;25.80;1.00;;;;;;5072473;28;20208;-78
2022/08/30 11:56:42;;;;;;;2.88;1.83;;;25.90;1.00;;;;;;5071490;28;20292;-78
2022/08/30 11:59:23;;;;;;;4.00;2.28;;;26.00;1.00;;;;;;5072037;28;20586;-79
2022/08/30 12:01:51;;;;;;;4.35;1.70;;;25.90;1.00;;;;;;5072098;28;20211;-78
2022/08/30 12:04:30;;;;;;;2.15;1.50;;;25.70;1.00;;;;;;5071271;28;20304;-79
2022/08/30 12:06:59;;;;;;;3.53;1.75;;;25.70;1.00;;;;;;5052312;28;20265;-78
2022/08/30 12:10:05;;;;;;;2.10;1.70;;;25.50;1.00;;;;;;5051583;28;20190;-80
2022/08/30 12:12:56;;;;;;;3.00;1.48;;;25.30;1.00;;;;;;5052863;28;20384;-79
2022/08/30 12:15:58;;;;;;;8.23;2.13;;;25.10;1.00;;;;;;5071502;28;20197;-78
2022/08/30 12:18:40;;;;;;;5.78;1.80;;;25.10;1.00;;;;;;5071103;28;20263;-80
2022/08/30 12:21:26;;;;;;;4.82;2.20;;;25.10;1.00;;;;;;5052000;28;20502;-80
2022/08/30 12:24:00;;;;;;;2.80;1.92;;;25.10;1.00;;;;;;5056127;28;20223;-81
2022/08/30 12:26:34;;;;;;;2.20;1.85;;;25.00;1.00;;;;;;5071200;28;20458;-82
2022/08/30 12:29:18;;;;;;;6.55;2.13;;;25.10;1.00;;;;;;5064476;28;20227;-83
2022/08/30 12:31:47;;;;;;;3.30;2.13;;;25.20;1.00;;;;;;5069359;28;20381;-79
2022/08/30 12:34:22;;;;;;;3.70;1.83;;;25.20;1.00;;;;;;5058404;28;20281;-79
2022/08/30 12:36:54;;;;;;;4.07;1.73;;;25.30;1.00;;;;;;5052081;28;20184;-79
2022/08/30 12:39:24;;;;;;;3.33;1.50;;;25.20;1.00;;;;;;5013440;28;1088047;-81
2022/08/30 12:41:52;;;;;;;4.93;1.80;;;25.20;1.00;;;;;;5052500;28;20212;-80
2022/08/30 12:44:24;;;;;;;7.10;2.30;;;25.30;1.00;;;;;;5052369;28;20252;-88
2022/08/30 12:46:55;;;;;;;2.38;1.65;;;25.30;1.00;;;;;;5056330;28;20198;-83
2022/08/30 12:49:26;;;;;;;2.95;1.58;;;25.20;1.00;;;;;;5092684;28;20200;-81
2022/08/30 12:51:54;;;;;;;3.75;1.67;;;25.30;1.00;;;;;;5074195;28;20799;-82
2022/08/30 12:54:23;;;;;;;4.00;1.55;;;25.30;1.00;;;;;;5060675;28;20227;-85
2022/08/30 12:56:58;;;;;;;3.95;1.70;;;25.30;1.00;;;;;;5074353;28;20208;-83
2022/08/30 12:59:46;;;;;;;2.85;1.55;;;25.40;1.00;;;;;;5073154;28;20289;-81
2022/08/30 13:02:15;;;;;;;3.78;1.38;;;25.40;99.90;;;;;;5073657;28;20274;-86
2022/08/30 13:04:43;;;;;;;1.75;1.35;;;25.30;99.90;;;;;;5073153;28;20254;-85
2022/08/30 13:07:10;;;;;;;1.77;1.25;;;25.00;99.90;;;;;;5071947;28;20190;-82
2022/08/30 13:09:41;;;;;;;5.68;1.48;;;24.80;99.90;;;;;;5072392;28;20198;-83
2022/08/30 13:12:20;;;;;;;3.42;1.50;;;24.80;1.00;;;;;;5073129;28;20522;-81